createdAt,value
2023-09-29T00:00:16.167Z,98292.75
2023-09-29T00:05:20.429Z,98221.72
2023-09-29T00:10:24.382Z,98295.31
2023-09-29T00:15:29.285Z,98280.38
2023-09-29T00:20:32.769Z,98330.50
2023-09-29T00:25:36.242Z,98297.13
2023-09-29T00:30:41.116Z,98325.22
2023-09-29T00:35:44.770Z,98326.19
2023-09-29T00:40:48.403Z,98306.91
2023-09-29T00:45:53.428Z,98294.66
2023-09-29T00:50:57.029Z,98314.00
2023-09-29T00:56:00.576Z,98271.38
2023-09-29T01:01:07.648Z,98310.03
2023-09-29T01:06:11.453Z,98264.91
2023-09-29T01:11:15.038Z,98253.13
2023-09-29T01:16:21.240Z,98288.47
2023-09-29T01:21:24.984Z,98297.47
2023-09-29T01:26:30.414Z,98283.91
2023-09-29T01:31:35.545Z,98293.09
2023-09-29T01:36:40.440Z,98245.09
2023-09-29T01:41:45.265Z,98299.97
2023-09-29T01:46:50.484Z,98261.13
2023-09-29T01:51:54.781Z,98291.53
2023-09-29T01:57:02.410Z,98289.91
2023-09-29T02:02:06.786Z,98235.13
2023-09-29T02:07:11.184Z,98289.44
2023-09-29T02:12:16.619Z,98280.16
2023-09-29T02:17:20.073Z,98264.97
2023-09-29T02:22:23.503Z,98155.22
2023-09-29T02:27:30.201Z,98124.59
2023-09-29T02:32:35.679Z,98218.50
2023-09-29T02:37:39.568Z,98282.19
2023-09-29T02:42:45.530Z,98280.31
2023-09-29T02:47:49.676Z,98178.06
2023-09-29T02:52:53.534Z,98269.19
2023-09-29T02:57:59.257Z,98289.50
2023-09-29T03:03:04.910Z,98253.16
2023-09-29T03:08:08.665Z,98288.78
2023-09-29T03:13:14.107Z,98063.25
2023-09-29T03:18:17.721Z,98287.09
2023-09-29T03:23:21.248Z,98281.69
2023-09-29T03:28:26.842Z,98118.28
2023-09-29T03:33:30.854Z,98284.31
2023-09-29T03:38:34.442Z,98101.47
2023-09-29T03:43:40.056Z,98211.63
2023-09-29T03:48:47.667Z,98272.13
2023-09-29T03:53:51.423Z,98255.84
2023-09-29T03:58:56.824Z,98285.91
2023-09-29T04:04:02.655Z,98271.66
2023-09-29T04:09:07.071Z,98252.19
2023-09-29T04:14:23.887Z,98242.75
2023-09-29T04:19:36.481Z,98288.75
2023-09-29T04:24:41.508Z,98327.69
2023-09-29T04:29:47.463Z,98316.34
2023-09-29T04:34:50.974Z,98256.09
2023-09-29T04:39:57.102Z,98318.25
2023-09-29T04:45:02.214Z,98308.34
2023-09-29T04:50:07.138Z,98315.44
2023-09-29T04:55:11.569Z,98118.03
2023-09-29T05:00:17.718Z,98316.97
2023-09-29T05:05:21.181Z,98286.44
2023-09-29T05:10:25.583Z,98311.19
2023-09-29T05:15:30.591Z,98307.41
2023-09-29T05:20:34.673Z,98320.72
2023-09-29T05:25:38.154Z,98210.34
2023-09-29T05:30:54.393Z,98270.25
2023-09-29T05:35:58.144Z,98310.00
2023-09-29T05:41:01.618Z,98335.16
2023-09-29T05:46:07.009Z,98333.41
2023-09-29T05:51:10.634Z,98306.69
2023-09-29T05:56:14.399Z,98316.63
2023-09-29T06:01:19.375Z,98324.06
2023-09-29T06:06:22.931Z,98341.06
2023-09-29T06:11:26.414Z,98343.03
2023-09-29T06:16:31.303Z,98348.13
2023-09-29T06:21:35.845Z,98360.16
2023-09-29T06:26:39.284Z,98358.03
2023-09-29T06:31:44.187Z,98379.72
2023-09-29T06:36:47.701Z,98335.13
2023-09-29T06:41:51.221Z,98378.63
2023-09-29T06:46:56.309Z,98381.00
2023-09-29T06:51:59.795Z,98378.41
2023-09-29T06:57:03.364Z,98381.81
2023-09-29T07:02:08.547Z,98240.16
2023-09-29T07:07:12.019Z,98366.53
2023-09-29T07:12:15.632Z,98284.78
2023-09-29T07:17:20.535Z,98357.44
2023-09-29T07:22:24.063Z,98290.69
2023-09-29T07:27:29.131Z,98241.22
2023-09-29T07:32:34.045Z,98344.34
2023-09-29T07:37:39.363Z,98367.06
2023-09-29T07:42:43.007Z,98294.88
2023-09-29T07:47:48.431Z,98266.03
2023-09-29T07:52:52.214Z,98384.47
2023-09-29T07:57:55.816Z,98247.63
2023-09-29T08:03:01.371Z,98378.41
2023-09-29T08:08:05.693Z,98368.03
2023-09-29T08:13:09.479Z,98364.13
2023-09-29T08:18:15.155Z,98345.53
2023-09-29T08:23:18.775Z,98373.75
2023-09-29T08:28:22.659Z,98253.91
2023-09-29T08:38:36.443Z,98301.75
2023-09-29T08:43:46.368Z,98245.50
2023-09-29T08:48:58.972Z,98278.81
2023-09-29T08:54:04.778Z,98353.28
2023-09-29T08:59:08.961Z,98369.66
2023-09-29T09:04:14.289Z,98247.41
2023-09-29T09:09:24.726Z,98139.97
2023-09-29T09:14:28.444Z,98356.78
2023-09-29T09:19:34.205Z,98156.06
2023-09-29T09:24:37.860Z,98263.00
2023-09-29T09:29:42.839Z,98352.63
2023-09-29T09:34:50.315Z,98140.22
2023-09-29T09:39:56.789Z,98353.75
2023-09-29T09:50:32.153Z,98337.50
2023-09-29T09:55:40.913Z,98344.84
2023-09-29T10:00:50.340Z,98178.75
2023-09-29T10:05:57.328Z,98273.53
2023-09-29T10:11:12.942Z,98269.00
2023-09-29T10:16:23.535Z,98146.00
2023-09-29T10:21:32.060Z,98334.94
2023-09-29T10:26:44.936Z,98341.53
2023-09-29T10:31:51.338Z,98353.50
2023-09-29T10:36:58.437Z,98339.50
2023-09-29T10:42:13.910Z,98296.44
2023-09-29T10:47:18.602Z,98311.34
2023-09-29T10:52:24.522Z,98239.88
2023-09-29T10:57:29.822Z,98219.72
2023-09-29T11:02:35.538Z,98265.72
2023-09-29T11:07:52.038Z,98286.91
2023-09-29T11:12:55.564Z,98282.25
2023-09-29T11:17:59.353Z,98283.91
2023-09-29T11:23:12.884Z,98276.75
2023-09-29T11:28:17.163Z,98279.19
2023-09-29T11:33:21.227Z,98212.88
2023-09-29T11:38:26.258Z,98279.53
2023-09-29T11:43:29.848Z,98261.09
2023-09-29T11:48:33.603Z,98239.94
2023-09-29T11:53:40.030Z,98137.97
2023-09-29T11:58:43.603Z,98125.13
2023-09-29T12:03:47.376Z,98274.09
2023-09-29T12:08:52.569Z,98181.34
2023-09-29T12:13:56.553Z,98258.56
2023-09-29T12:19:00.193Z,98270.03
2023-09-29T12:24:05.985Z,98242.84
2023-09-29T12:29:09.638Z,98242.47
2023-09-29T12:34:15.798Z,98225.47
2023-09-29T12:39:20.934Z,98261.81
2023-09-29T12:44:25.211Z,98175.66
2023-09-29T12:49:28.962Z,98252.19
2023-09-29T12:54:33.999Z,98222.97
2023-09-29T12:59:37.919Z,98089.88
2023-09-29T13:04:43.055Z,98206.38
2023-09-29T13:09:48.334Z,98282.28
2023-09-29T13:14:53.114Z,98218.53
2023-09-29T13:19:56.707Z,98224.53
2023-09-29T13:25:01.532Z,98285.56
2023-09-29T13:30:06.406Z,98286.16
2023-09-29T13:35:10.895Z,98158.06
2023-09-29T13:40:17.162Z,98156.84
2023-09-29T13:45:21.032Z,98262.41
2023-09-29T13:50:24.575Z,98282.66
2023-09-29T13:55:29.544Z,98281.72
2023-09-29T14:00:33.093Z,98276.72
2023-09-29T14:05:40.206Z,98218.50
2023-09-29T14:10:45.171Z,98288.59
2023-09-29T14:15:48.775Z,98314.97
2023-09-29T14:20:53.605Z,98278.09
2023-09-29T14:25:58.406Z,98289.50
2023-09-29T14:31:03.519Z,98261.69
2023-09-29T14:36:08.356Z,98326.16
2023-09-29T14:41:14.692Z,98280.06
2023-09-29T14:46:18.506Z,98281.00
2023-09-29T14:51:22.140Z,98319.00
2023-09-29T14:56:27.247Z,98348.72
2023-09-29T15:01:30.895Z,98355.03
2023-09-29T15:06:34.472Z,98346.34
2023-09-29T15:11:39.919Z,98221.00
2023-09-29T15:16:43.439Z,98395.31
2023-09-29T15:21:47.012Z,98369.22
2023-09-29T15:26:51.786Z,98236.97
2023-09-29T15:31:55.373Z,98416.81
2023-09-29T15:36:58.880Z,98430.84
2023-09-29T15:42:03.723Z,98417.78
2023-09-29T15:47:07.339Z,98358.94
2023-09-29T15:52:12.228Z,98462.78
2023-09-29T15:57:17.009Z,98373.50
2023-09-29T16:02:26.735Z,98424.44
2023-09-29T16:07:32.741Z,98435.94
2023-09-29T16:12:37.725Z,98471.06
2023-09-29T16:17:43.433Z,98508.56
2023-09-29T16:23:06.868Z,98509.38
2023-09-29T16:28:20.461Z,98476.22
2023-09-29T16:33:24.455Z,98436.94
2023-09-29T16:38:28.036Z,98476.44
2023-09-29T16:43:32.964Z,98512.56
2023-09-29T16:48:36.703Z,98498.78
2023-09-29T16:53:40.325Z,98544.25
2023-09-29T16:58:45.146Z,98560.91
2023-09-29T17:03:48.693Z,98551.75
2023-09-29T17:08:52.522Z,98558.81
2023-09-29T17:13:58.657Z,98583.09
2023-09-29T17:19:02.481Z,98506.56
2023-09-29T17:24:07.448Z,98593.06
2023-09-29T17:29:12.434Z,98603.81
2023-09-29T17:34:15.991Z,98544.81
2023-09-29T17:39:19.583Z,98596.78
2023-09-29T17:44:24.589Z,98425.97
2023-09-29T17:49:28.233Z,98537.09
2023-09-29T17:54:31.970Z,98612.06
2023-09-29T17:59:36.986Z,98627.31
2023-09-29T18:04:40.531Z,98631.31
2023-09-29T18:09:44.050Z,98597.16
2023-09-29T18:14:48.920Z,98651.06
2023-09-29T18:19:52.587Z,98651.47
2023-09-29T18:24:56.111Z,98645.56
2023-09-29T18:30:01.071Z,98661.25
2023-09-29T18:35:05.358Z,98639.72
2023-09-29T18:40:13.461Z,98609.63
2023-09-29T18:45:18.544Z,98662.28
2023-09-29T18:50:22.049Z,98589.50
2023-09-29T18:55:25.681Z,98617.09
2023-09-29T19:00:33.087Z,98562.16
2023-09-29T19:05:38.977Z,98649.63
2023-09-29T19:10:43.983Z,98688.66
2023-09-29T19:15:51.593Z,98687.91
2023-09-29T19:20:56.260Z,98692.56
2023-09-29T19:26:01.491Z,98623.41
2023-09-29T19:31:06.343Z,98720.25
2023-09-29T19:36:09.929Z,98706.88
2023-09-29T19:41:14.620Z,98525.53
2023-09-29T19:46:22.945Z,98710.28
2023-09-29T19:51:26.779Z,98747.69
2023-09-29T19:56:34.553Z,98730.78
2023-09-29T20:01:40.449Z,98753.59
2023-09-29T20:06:44.366Z,98715.97
2023-09-29T20:11:48.146Z,98750.59
2023-09-29T20:16:55.486Z,98748.59
2023-09-29T20:21:59.796Z,98758.00
2023-09-29T20:27:03.505Z,98732.19
2023-09-29T20:32:08.412Z,98765.16
2023-09-29T20:37:15.944Z,98662.28
2023-09-29T20:42:20.156Z,98774.94
2023-09-29T20:47:25.308Z,98747.03
2023-09-29T20:52:31.779Z,98711.50
2023-09-29T20:57:36.536Z,98710.19
2023-09-29T21:02:42.342Z,98783.47
2023-09-29T21:07:45.962Z,98762.41
2023-09-29T21:12:50.728Z,98793.66
2023-09-29T21:17:55.692Z,98777.81
2023-09-29T21:22:59.151Z,98801.16
2023-09-29T21:28:04.575Z,98767.06
2023-09-29T21:33:09.479Z,98708.44
2023-09-29T21:38:12.957Z,98811.56
2023-09-29T21:43:16.516Z,98757.50
2023-09-29T21:48:21.587Z,98630.06
2023-09-29T21:53:25.212Z,98759.28
2023-09-29T21:58:28.748Z,98753.03
2023-09-29T22:03:34.750Z,98805.31
2023-09-29T22:08:38.465Z,98748.41
2023-09-29T22:13:42.502Z,98817.28
2023-09-29T22:18:47.691Z,98691.41
2023-09-29T22:23:52.311Z,98836.94
2023-09-29T22:28:57.252Z,98803.91
2023-09-29T22:34:02.693Z,98663.75
2023-09-29T22:39:08.000Z,98829.00
2023-09-29T22:44:12.408Z,98815.25
2023-09-29T22:49:20.566Z,98841.56
2023-09-29T22:54:24.010Z,98807.22
2023-09-29T22:59:27.583Z,98837.31
2023-09-29T23:04:32.399Z,98772.75
2023-09-29T23:09:36.148Z,98837.16
2023-09-29T23:14:39.919Z,98838.19
2023-09-29T23:19:45.230Z,98855.25
2023-09-29T23:24:48.677Z,98775.81
2023-09-29T23:29:53.397Z,98866.16
2023-09-29T23:34:58.384Z,98896.03
2023-09-29T23:40:02.098Z,98871.34
2023-09-29T23:45:07.547Z,98914.25
2023-09-29T23:50:12.966Z,98915.44
2023-09-29T23:55:17.203Z,98902.72
